createdAt,value
2023-03-14T00:00:13.952Z,960.23
2023-03-14T00:01:13.878Z,960.22
2023-03-14T00:02:13.805Z,960.29
2023-03-14T00:03:13.715Z,960.33
2023-03-14T00:04:13.630Z,960.29
2023-03-14T00:05:13.550Z,960.25
2023-03-14T00:06:13.489Z,960.26
2023-03-14T00:07:13.383Z,960.30
2023-03-14T00:08:13.306Z,960.28
2023-03-14T00:09:13.222Z,960.21
2023-03-14T00:10:13.145Z,960.29
2023-03-14T00:11:13.074Z,960.33
2023-03-14T00:12:12.991Z,960.28
2023-03-14T00:13:12.900Z,960.36
2023-03-14T00:14:12.838Z,960.42
2023-03-14T00:15:12.740Z,960.40
2023-03-14T00:16:12.685Z,960.43
2023-03-14T00:17:12.575Z,960.38
2023-03-14T00:18:12.496Z,960.41
2023-03-14T00:19:12.413Z,960.44
2023-03-14T00:20:12.337Z,960.51
2023-03-14T00:21:12.264Z,960.52
2023-03-14T00:22:12.172Z,960.54
2023-03-14T00:23:12.089Z,960.56
2023-03-14T00:24:12.012Z,960.54
2023-03-14T00:25:11.932Z,960.62
2023-03-14T00:26:11.854Z,960.73
2023-03-14T00:27:11.767Z,960.71
2023-03-14T00:28:11.704Z,960.80
2023-03-14T00:29:11.605Z,960.83
2023-03-14T00:30:11.528Z,960.83
2023-03-14T00:31:11.469Z,960.88
2023-03-14T00:32:11.365Z,960.92
2023-03-14T00:33:11.278Z,960.95
2023-03-14T00:34:11.205Z,960.89
2023-03-14T00:35:11.121Z,960.90
2023-03-14T00:36:11.092Z,960.95
2023-03-14T00:37:10.956Z,960.94
2023-03-14T00:38:10.873Z,960.92
2023-03-14T00:39:10.791Z,960.94
2023-03-14T00:40:10.723Z,960.87
2023-03-14T00:41:10.635Z,960.82
2023-03-14T00:42:10.566Z,960.70
2023-03-14T00:43:10.468Z,960.52
2023-03-14T00:44:10.388Z,960.48
2023-03-14T00:45:10.308Z,960.41
2023-03-14T00:46:10.274Z,960.33
2023-03-14T00:47:10.146Z,960.48
2023-03-14T00:48:10.062Z,960.70
2023-03-14T00:49:09.983Z,960.81
2023-03-14T00:50:09.902Z,961.11
2023-03-14T00:51:09.821Z,961.05
2023-03-14T00:52:09.740Z,961.02
2023-03-14T00:53:09.656Z,960.93
2023-03-14T00:54:09.580Z,960.97
2023-03-14T00:55:09.494Z,960.95
2023-03-14T00:56:09.416Z,960.87
2023-03-14T00:57:09.331Z,960.86
2023-03-14T00:58:09.252Z,960.81
2023-03-14T00:59:09.177Z,960.86
2023-03-14T01:00:09.095Z,960.67
2023-03-14T01:01:09.007Z,960.63
2023-03-14T01:02:08.964Z,960.52
2023-03-14T01:03:08.871Z,960.52
2023-03-14T01:04:08.768Z,960.60
2023-03-14T01:05:08.686Z,960.47
2023-03-14T01:06:08.608Z,960.41
2023-03-14T01:07:08.522Z,960.39
2023-03-14T01:08:08.452Z,960.39
2023-03-14T01:09:08.360Z,960.38
2023-03-14T01:10:08.286Z,960.22
2023-03-14T01:11:08.202Z,960.22
2023-03-14T01:12:08.118Z,960.09
2023-03-14T01:13:08.049Z,960.10
2023-03-14T01:14:07.967Z,960.02
2023-03-14T01:15:07.882Z,960.02
2023-03-14T01:16:07.880Z,959.89
2023-03-14T01:17:07.713Z,959.78
2023-03-14T01:18:07.641Z,959.60
2023-03-14T01:19:07.552Z,959.45
2023-03-14T01:20:07.539Z,959.59
2023-03-14T01:21:07.390Z,959.72
2023-03-14T01:22:07.311Z,959.60
2023-03-14T01:23:07.227Z,959.57
2023-03-14T01:24:07.148Z,959.53
2023-03-14T01:25:07.065Z,959.52
2023-03-14T01:26:06.990Z,959.47
2023-03-14T01:27:06.913Z,959.42
2023-03-14T01:28:06.825Z,959.36
2023-03-14T01:29:06.743Z,959.41
2023-03-14T01:30:06.687Z,959.27
2023-03-14T01:31:06.624Z,959.11
2023-03-14T01:32:06.504Z,959.16
2023-03-14T01:33:06.416Z,959.20
2023-03-14T01:34:06.344Z,959.16
2023-03-14T01:35:06.254Z,959.06
2023-03-14T01:36:06.252Z,959.07
2023-03-14T01:37:06.096Z,959.13
2023-03-14T01:38:06.015Z,959.12
2023-03-14T01:39:05.931Z,959.10
2023-03-14T01:40:05.854Z,959.07
2023-03-14T01:41:05.776Z,959.05
2023-03-14T01:42:05.688Z,959.11
2023-03-14T01:43:05.607Z,959.20
2023-03-14T01:44:05.523Z,959.30
2023-03-14T01:45:05.459Z,959.36
2023-03-14T01:46:05.542Z,959.53
2023-03-14T01:47:05.284Z,959.76
2023-03-14T01:48:05.201Z,959.91
2023-03-14T01:49:05.127Z,959.97
2023-03-14T01:50:05.048Z,959.97
2023-03-14T01:51:04.959Z,960.03
2023-03-14T01:52:04.902Z,960.08
2023-03-14T01:53:04.797Z,960.05
2023-03-14T01:54:04.713Z,960.07
2023-03-14T01:55:04.659Z,960.06
2023-03-14T01:56:04.552Z,960.08
2023-03-14T01:57:04.476Z,960.05
2023-03-14T01:58:04.388Z,960.04
2023-03-14T01:59:04.311Z,960.03
2023-03-14T02:00:04.227Z,960.10
2023-03-14T02:01:04.226Z,960.06
2023-03-14T02:02:04.064Z,960.05
2023-03-14T02:03:04.012Z,960.11
2023-03-14T02:04:03.905Z,960.08
2023-03-14T02:05:03.828Z,960.04
2023-03-14T02:06:03.743Z,960.02
2023-03-14T02:07:03.665Z,960.05
2023-03-14T02:08:03.584Z,959.96
2023-03-14T02:09:03.503Z,959.92
2023-03-14T02:10:03.436Z,959.95
2023-03-14T02:11:03.340Z,959.96
2023-03-14T02:12:03.252Z,959.92
2023-03-14T02:13:03.175Z,959.83
2023-03-14T02:14:03.089Z,959.80
2023-03-14T02:15:03.019Z,959.74
2023-03-14T02:16:03.011Z,959.72
2023-03-14T02:17:02.846Z,959.70
2023-03-14T02:18:02.766Z,959.66
2023-03-14T02:19:02.686Z,959.67
2023-03-14T02:20:02.634Z,959.61
2023-03-14T02:21:02.529Z,959.59
2023-03-14T02:22:02.437Z,959.63
2023-03-14T02:23:02.356Z,959.62
2023-03-14T02:24:02.277Z,959.63
2023-03-14T02:25:02.203Z,959.64
2023-03-14T02:26:02.116Z,959.57
2023-03-14T02:27:02.033Z,959.65
2023-03-14T02:28:01.951Z,959.59
2023-03-14T02:29:01.872Z,959.59
2023-03-14T02:30:01.797Z,959.56
2023-03-14T02:31:01.723Z,959.60
2023-03-14T02:32:01.729Z,959.61
2023-03-14T02:33:01.635Z,959.59
2023-03-14T02:34:01.464Z,959.56
2023-03-14T02:35:01.394Z,959.52
2023-03-14T02:36:01.401Z,959.54
2023-03-14T02:37:01.219Z,959.52
2023-03-14T02:38:01.135Z,959.49
2023-03-14T02:39:01.070Z,959.52
2023-03-14T02:40:00.984Z,959.45
2023-03-14T02:41:00.902Z,959.40
2023-03-14T02:42:00.815Z,959.42
2023-03-14T02:43:00.734Z,959.41
2023-03-14T02:44:00.649Z,959.46
2023-03-14T02:45:00.572Z,959.41
2023-03-14T02:46:00.518Z,959.43
2023-03-14T02:47:00.406Z,959.45
2023-03-14T02:48:00.324Z,959.46
2023-03-14T02:49:00.246Z,959.49
2023-03-14T02:50:00.165Z,959.47
2023-03-14T02:51:00.098Z,959.47
2023-03-14T02:52:00.005Z,959.42
2023-03-14T02:52:59.920Z,959.48
2023-03-14T02:53:59.838Z,959.45
2023-03-14T02:54:59.770Z,959.43
2023-03-14T02:55:59.678Z,959.40
2023-03-14T02:56:59.600Z,959.32
2023-03-14T02:57:59.514Z,959.30
2023-03-14T02:58:59.432Z,959.31
2023-03-14T02:59:59.350Z,959.28
2023-03-14T03:00:59.330Z,959.32
2023-03-14T03:01:59.189Z,959.34
2023-03-14T03:02:59.182Z,959.35
2023-03-14T03:03:59.031Z,959.30
2023-03-14T03:04:58.947Z,959.33
2023-03-14T03:05:58.868Z,959.32
2023-03-14T03:06:58.786Z,959.34
2023-03-14T03:07:58.707Z,959.38
2023-03-14T03:08:58.621Z,959.44
2023-03-14T03:09:58.541Z,959.44
2023-03-14T03:10:58.470Z,959.41
2023-03-14T03:11:58.377Z,959.40
2023-03-14T03:12:58.298Z,959.40
2023-03-14T03:13:58.218Z,959.38
2023-03-14T03:14:58.133Z,959.36
2023-03-14T03:15:58.053Z,959.30
2023-03-14T03:16:58.069Z,959.28
2023-03-14T03:17:57.889Z,959.22
2023-03-14T03:18:57.812Z,959.27
2023-03-14T03:19:57.732Z,959.26
2023-03-14T03:20:57.653Z,959.24
2023-03-14T03:21:57.571Z,959.22
2023-03-14T03:22:57.494Z,959.21
2023-03-14T03:23:57.416Z,959.18
2023-03-14T03:24:57.330Z,959.13
2023-03-14T03:25:57.250Z,959.13
2023-03-14T03:26:57.173Z,959.17
2023-03-14T03:27:57.088Z,959.17
2023-03-14T03:28:57.006Z,959.10
2023-03-14T03:29:56.923Z,959.04
2023-03-14T03:30:56.879Z,959.03
2023-03-14T03:31:56.768Z,959.04
2023-03-14T03:32:56.777Z,959.05
2023-03-14T03:33:56.600Z,959.03
2023-03-14T03:34:56.522Z,959.08
2023-03-14T03:35:56.501Z,959.10
2023-03-14T03:36:56.363Z,959.13
2023-03-14T03:37:56.280Z,959.14
2023-03-14T03:38:56.199Z,959.19
2023-03-14T03:39:56.115Z,959.24
2023-03-14T03:40:56.037Z,959.25
2023-03-14T03:41:55.953Z,959.25
2023-03-14T03:42:55.872Z,959.22
2023-03-14T03:43:55.796Z,959.20
2023-03-14T03:44:55.709Z,959.18
2023-03-14T03:45:55.656Z,959.17
2023-03-14T03:46:55.552Z,959.20
2023-03-14T03:47:55.465Z,959.18
2023-03-14T03:48:55.398Z,959.21
2023-03-14T03:49:55.309Z,959.23
2023-03-14T03:50:55.222Z,959.20
2023-03-14T03:51:55.139Z,959.14
2023-03-14T03:52:55.064Z,959.08
2023-03-14T03:53:54.985Z,959.07
2023-03-14T03:54:54.897Z,959.02
2023-03-14T03:55:54.848Z,959.01
2023-03-14T03:56:54.736Z,959.01
2023-03-14T03:57:54.656Z,959.05
2023-03-14T03:58:54.570Z,959.05
2023-03-14T03:59:54.492Z,959.02
2023-03-14T04:00:54.411Z,958.94
2023-03-14T04:01:54.341Z,958.91
2023-03-14T04:02:54.297Z,958.86
2023-03-14T04:03:54.241Z,958.85
2023-03-14T04:04:54.084Z,958.85
2023-03-14T04:05:54.004Z,958.87
2023-03-14T04:06:53.920Z,958.85
2023-03-14T04:07:53.843Z,958.81
2023-03-14T04:08:53.760Z,958.79
2023-03-14T04:09:53.677Z,958.77
2023-03-14T04:10:53.602Z,958.75
2023-03-14T04:11:53.513Z,958.66
2023-03-14T04:12:53.434Z,958.63
2023-03-14T04:13:53.366Z,958.57
2023-03-14T04:14:53.273Z,958.55
2023-03-14T04:15:53.227Z,958.62
2023-03-14T04:16:53.113Z,958.55
2023-03-14T04:17:53.051Z,958.61
2023-03-14T04:18:52.950Z,958.61
2023-03-14T04:19:52.871Z,958.61
2023-03-14T04:20:52.786Z,958.62
2023-03-14T04:21:52.828Z,958.59
2023-03-14T04:22:52.626Z,958.57
2023-03-14T04:23:52.545Z,958.56
2023-03-14T04:24:52.506Z,958.57
2023-03-14T04:25:52.690Z,958.55
2023-03-14T04:26:52.299Z,958.54
2023-03-14T04:27:53.455Z,958.48
2023-03-14T04:28:52.134Z,958.46
2023-03-14T04:29:52.051Z,958.45
2023-03-14T04:30:52.012Z,958.51
2023-03-14T04:31:51.890Z,958.49
2023-03-14T04:32:51.835Z,958.50
2023-03-14T04:33:51.725Z,958.54
2023-03-14T04:34:51.649Z,958.54
2023-03-14T04:35:51.597Z,958.54
2023-03-14T04:36:51.483Z,958.54
2023-03-14T04:37:51.400Z,958.54
2023-03-14T04:38:51.322Z,958.55
2023-03-14T04:39:51.250Z,958.48
2023-03-14T04:40:51.161Z,958.51
2023-03-14T04:41:51.078Z,958.51
2023-03-14T04:42:50.997Z,958.50
2023-03-14T04:43:50.944Z,958.48
2023-03-14T04:44:50.834Z,958.49
2023-03-14T04:45:50.748Z,958.51
2023-03-14T04:46:50.712Z,958.54
2023-03-14T04:47:50.587Z,958.58
2023-03-14T04:48:50.505Z,958.57
2023-03-14T04:49:50.432Z,958.61
2023-03-14T04:50:50.347Z,958.67
2023-03-14T04:51:50.263Z,958.71
2023-03-14T04:52:50.189Z,958.65
2023-03-14T04:53:50.099Z,958.67
2023-03-14T04:54:50.020Z,958.62
2023-03-14T04:55:49.945Z,958.60
2023-03-14T04:56:49.853Z,958.60
2023-03-14T04:57:49.773Z,958.61
2023-03-14T04:58:49.695Z,958.59
2023-03-14T04:59:49.617Z,958.63
2023-03-14T05:00:49.527Z,958.63
2023-03-14T05:01:49.457Z,958.69
2023-03-14T05:02:49.396Z,958.70
2023-03-14T05:03:49.280Z,958.70
2023-03-14T05:04:49.199Z,958.70
2023-03-14T05:05:49.121Z,958.75
2023-03-14T05:06:49.039Z,958.78
2023-03-14T05:07:48.956Z,958.71
2023-03-14T05:08:48.870Z,958.66
2023-03-14T05:09:48.796Z,958.65
2023-03-14T05:10:48.710Z,958.66
2023-03-14T05:11:48.622Z,958.63
2023-03-14T05:12:48.550Z,958.57
2023-03-14T05:13:48.462Z,958.52
2023-03-14T05:14:48.380Z,958.52
2023-03-14T05:15:48.407Z,958.53
2023-03-14T05:16:48.222Z,958.49
2023-03-14T05:17:48.140Z,958.48
2023-03-14T05:18:48.056Z,958.51
2023-03-14T05:19:47.972Z,958.52
2023-03-14T05:20:47.888Z,958.52
2023-03-14T05:21:47.807Z,958.53
2023-03-14T05:22:47.727Z,958.41
2023-03-14T05:23:47.645Z,958.37
2023-03-14T05:24:47.567Z,958.34
2023-03-14T05:25:47.485Z,958.37
2023-03-14T05:26:47.418Z,958.37
2023-03-14T05:27:47.318Z,958.43
2023-03-14T05:28:47.238Z,958.45
2023-03-14T05:29:47.157Z,958.41
2023-03-14T05:30:47.077Z,958.40
2023-03-14T05:31:47.047Z,958.40
2023-03-14T05:32:46.911Z,958.36
2023-03-14T05:33:46.828Z,958.38
2023-03-14T05:34:46.755Z,958.32
2023-03-14T05:35:46.705Z,958.34
2023-03-14T05:36:46.587Z,958.34
2023-03-14T05:37:46.509Z,958.31
2023-03-14T05:38:46.423Z,958.29
2023-03-14T05:39:46.341Z,958.27
2023-03-14T05:40:46.264Z,958.23
2023-03-14T05:41:46.198Z,958.26
2023-03-14T05:42:46.102Z,958.28
2023-03-14T05:43:46.016Z,958.27
2023-03-14T05:44:45.936Z,958.28
2023-03-14T05:45:45.909Z,958.26
2023-03-14T05:46:45.775Z,958.24
2023-03-14T05:47:45.693Z,958.23
2023-03-14T05:48:45.618Z,958.19
2023-03-14T05:49:45.531Z,958.20
2023-03-14T05:50:45.470Z,958.16
2023-03-14T05:51:45.367Z,958.16
2023-03-14T05:52:45.291Z,958.20
2023-03-14T05:53:45.203Z,958.19
2023-03-14T05:54:45.123Z,958.13
2023-03-14T05:55:45.040Z,958.16
2023-03-14T05:56:44.961Z,958.11
2023-03-14T05:57:44.882Z,958.11
2023-03-14T05:58:44.809Z,958.10
2023-03-14T05:59:44.717Z,958.10
2023-03-14T06:00:44.627Z,958.07
2023-03-14T06:01:44.567Z,958.09
2023-03-14T06:02:44.466Z,958.10
2023-03-14T06:03:44.459Z,958.09
2023-03-14T06:04:44.299Z,958.14
2023-03-14T06:05:44.222Z,958.13
2023-03-14T06:06:44.152Z,958.09
2023-03-14T06:07:44.057Z,958.09
2023-03-14T06:08:43.973Z,958.08
2023-03-14T06:09:43.896Z,958.08
2023-03-14T06:10:43.808Z,958.10
2023-03-14T06:11:43.730Z,958.09
2023-03-14T06:12:43.648Z,958.08
2023-03-14T06:13:43.568Z,958.08
2023-03-14T06:14:43.483Z,958.03
2023-03-14T06:15:43.405Z,958.08
2023-03-14T06:16:43.424Z,958.04
2023-03-14T06:17:43.239Z,958.04
2023-03-14T06:18:43.154Z,958.04
2023-03-14T06:19:43.087Z,958.05
2023-03-14T06:20:43.009Z,958.05
2023-03-14T06:21:42.912Z,958.03
2023-03-14T06:22:42.845Z,958.02
2023-03-14T06:23:42.748Z,958.07
2023-03-14T06:24:42.666Z,958.05
2023-03-14T06:25:42.586Z,958.02
2023-03-14T06:26:42.505Z,957.99
2023-03-14T06:27:42.429Z,957.96
2023-03-14T06:28:42.342Z,957.95
2023-03-14T06:29:42.261Z,957.99
2023-03-14T06:30:42.198Z,958.00
2023-03-14T06:31:42.108Z,958.02
2023-03-14T06:32:42.053Z,958.02
2023-03-14T06:33:41.940Z,958.01
2023-03-14T06:34:41.853Z,957.99
2023-03-14T06:35:41.826Z,958.00
2023-03-14T06:36:41.693Z,957.96
2023-03-14T06:37:41.613Z,957.97
2023-03-14T06:38:41.526Z,957.90
2023-03-14T06:39:41.452Z,957.94
2023-03-14T06:40:41.376Z,957.90
2023-03-14T06:41:41.283Z,957.95
2023-03-14T06:42:41.200Z,957.92
2023-03-14T06:43:41.122Z,957.93
2023-03-14T06:44:41.036Z,957.92
2023-03-14T06:45:40.976Z,957.95
2023-03-14T06:46:40.873Z,957.99
2023-03-14T06:47:40.794Z,958.01
2023-03-14T06:48:40.711Z,958.07
2023-03-14T06:49:40.633Z,958.05
2023-03-14T06:50:40.547Z,958.07
2023-03-14T06:51:40.497Z,958.09
2023-03-14T06:52:40.423Z,958.05
2023-03-14T06:53:40.302Z,958.05
2023-03-14T06:54:40.220Z,958.06
2023-03-14T06:55:40.152Z,958.02
2023-03-14T06:56:40.058Z,958.08
2023-03-14T06:57:39.978Z,958.04
2023-03-14T06:58:39.895Z,958.07
2023-03-14T06:59:39.818Z,958.06
2023-03-14T07:00:39.731Z,958.08
2023-03-14T07:01:39.746Z,958.07
2023-03-14T07:02:42.931Z,958.08
2023-03-14T07:03:39.488Z,958.11
2023-03-14T07:04:39.438Z,958.12
2023-03-14T07:05:39.328Z,958.15
2023-03-14T07:06:39.244Z,958.16
2023-03-14T07:07:39.243Z,958.15
2023-03-14T07:08:39.079Z,958.17
2023-03-14T07:09:39.005Z,958.14
2023-03-14T07:10:38.919Z,958.12
2023-03-14T07:11:38.834Z,958.17
2023-03-14T07:12:38.751Z,958.14
2023-03-14T07:13:38.681Z,958.17
2023-03-14T07:14:38.594Z,958.23
2023-03-14T07:15:38.540Z,958.20
2023-03-14T07:16:38.424Z,958.19
2023-03-14T07:17:38.345Z,958.22
2023-03-14T07:18:38.272Z,958.26
2023-03-14T07:19:38.182Z,958.28
2023-03-14T07:20:38.105Z,958.30
2023-03-14T07:21:38.020Z,958.27
2023-03-14T07:22:37.937Z,958.33
2023-03-14T07:23:37.860Z,958.34
2023-03-14T07:24:37.776Z,958.32
2023-03-14T07:25:37.697Z,958.34
2023-03-14T07:26:37.611Z,958.34
2023-03-14T07:27:37.532Z,958.30
2023-03-14T07:28:37.508Z,958.36
2023-03-14T07:29:37.406Z,958.37
2023-03-14T07:30:37.284Z,958.40
2023-03-14T07:31:37.208Z,958.39
2023-03-14T07:32:37.143Z,958.41
2023-03-14T07:33:37.045Z,958.38
2023-03-14T07:34:36.960Z,958.42
2023-03-14T07:35:36.916Z,958.39
2023-03-14T07:36:36.798Z,958.38
2023-03-14T07:37:36.721Z,958.40
2023-03-14T07:38:36.657Z,958.41
2023-03-14T07:39:36.559Z,958.42
2023-03-14T07:40:36.475Z,958.44
2023-03-14T07:41:36.392Z,958.38
2023-03-14T07:42:36.312Z,958.44
2023-03-14T07:43:36.230Z,958.47
2023-03-14T07:44:36.147Z,958.51
2023-03-14T07:45:42.518Z,958.47
2023-03-14T07:46:36.026Z,958.50
2023-03-14T07:47:35.908Z,958.58
2023-03-14T07:48:35.836Z,958.57
2023-03-14T07:49:35.744Z,958.56
2023-03-14T07:50:35.661Z,958.63
2023-03-14T07:51:35.586Z,958.59
2023-03-14T07:52:35.497Z,958.59
2023-03-14T07:53:35.418Z,958.60
2023-03-14T07:54:35.338Z,958.60
2023-03-14T07:55:35.270Z,958.61
2023-03-14T07:56:35.173Z,958.60
2023-03-14T07:57:35.099Z,958.60
2023-03-14T07:58:35.013Z,958.59
2023-03-14T07:59:34.931Z,958.56
2023-03-14T08:00:34.851Z,958.54
2023-03-14T08:01:34.767Z,958.53
2023-03-14T08:02:34.711Z,958.45
2023-03-14T08:03:34.627Z,958.47
2023-03-14T08:04:34.523Z,958.42
2023-03-14T08:05:34.441Z,958.39
2023-03-14T08:06:34.374Z,958.45
2023-03-14T08:07:34.279Z,958.37
2023-03-14T08:08:34.197Z,958.36
2023-03-14T08:09:34.120Z,958.39
2023-03-14T08:10:34.058Z,958.33
2023-03-14T08:11:34.013Z,958.34
2023-03-14T08:12:33.886Z,958.40
2023-03-14T08:13:33.793Z,958.35
2023-03-14T08:14:33.710Z,958.40
2023-03-14T08:15:33.631Z,958.38
2023-03-14T08:16:33.570Z,958.40
2023-03-14T08:17:33.467Z,958.35
2023-03-14T08:18:33.385Z,958.36
2023-03-14T08:19:33.319Z,958.29
2023-03-14T08:20:33.225Z,958.30
2023-03-14T08:21:33.160Z,958.24
2023-03-14T08:22:33.060Z,958.22
2023-03-14T08:23:32.979Z,958.20
2023-03-14T08:24:32.896Z,958.24
2023-03-14T08:25:32.823Z,958.26
2023-03-14T08:26:32.739Z,958.27
2023-03-14T08:27:32.678Z,958.29
2023-03-14T08:28:32.573Z,958.27
2023-03-14T08:29:32.495Z,958.24
2023-03-14T08:30:32.532Z,958.20
2023-03-14T08:31:32.352Z,958.26
2023-03-14T08:32:32.355Z,958.24
2023-03-14T08:33:32.175Z,958.20
2023-03-14T08:34:32.096Z,958.16
2023-03-14T08:35:32.011Z,958.21
2023-03-14T08:36:31.997Z,958.08
2023-03-14T08:37:31.854Z,958.29
2023-03-14T08:38:31.767Z,958.12
2023-03-14T08:39:31.688Z,958.15
2023-03-14T08:40:31.607Z,958.06
2023-03-14T08:41:31.529Z,958.03
2023-03-14T08:42:31.450Z,958.03
2023-03-14T08:43:31.431Z,957.99
2023-03-14T08:44:31.354Z,958.06
2023-03-14T08:45:31.213Z,958.00
2023-03-14T08:46:31.142Z,958.00
2023-03-14T08:47:31.043Z,958.00
2023-03-14T08:48:30.964Z,957.98
2023-03-14T08:49:30.927Z,958.00
2023-03-14T08:50:30.825Z,957.96
2023-03-14T08:51:30.719Z,958.02
2023-03-14T08:52:30.670Z,958.05
2023-03-14T08:53:30.560Z,958.08
2023-03-14T08:54:30.489Z,958.02
2023-03-14T08:55:30.399Z,958.00
2023-03-14T08:56:30.330Z,958.01
2023-03-14T08:57:30.243Z,958.03
2023-03-14T08:58:30.156Z,958.00
2023-03-14T08:59:30.157Z,958.02
2023-03-14T09:00:29.997Z,958.11
2023-03-14T09:01:30.011Z,958.06
2023-03-14T09:02:29.835Z,958.01
2023-03-14T09:03:29.775Z,958.04
2023-03-14T09:04:29.781Z,958.02
2023-03-14T09:05:29.604Z,957.98
2023-03-14T09:06:29.516Z,957.86
2023-03-14T09:07:29.442Z,957.96
2023-03-14T09:08:29.366Z,957.95
2023-03-14T09:09:29.277Z,958.02
2023-03-14T09:10:29.196Z,957.96
2023-03-14T09:11:29.124Z,957.98
2023-03-14T09:12:29.038Z,957.97
2023-03-14T09:13:28.956Z,957.95
2023-03-14T09:14:28.892Z,958.02
2023-03-14T09:15:28.912Z,957.97
2023-03-14T09:16:28.740Z,957.99
2023-03-14T09:17:28.638Z,957.90
2023-03-14T09:18:28.560Z,957.95
2023-03-14T09:19:28.478Z,957.89
2023-03-14T09:20:28.396Z,957.92
2023-03-14T09:21:28.318Z,957.97
2023-03-14T09:22:28.233Z,957.96
2023-03-14T09:23:28.161Z,957.96
2023-03-14T09:24:28.097Z,957.89
2023-03-14T09:25:27.998Z,957.90
2023-03-14T09:26:27.914Z,957.96
2023-03-14T09:27:27.835Z,957.96
2023-03-14T09:28:27.764Z,957.99
2023-03-14T09:29:27.686Z,957.95
2023-03-14T09:30:27.595Z,957.95
2023-03-14T09:31:27.586Z,957.94
2023-03-14T09:32:27.483Z,958.00
2023-03-14T09:33:27.356Z,957.99
2023-03-14T09:34:27.284Z,957.99
2023-03-14T09:35:27.207Z,957.98
2023-03-14T09:36:27.117Z,957.98
2023-03-14T09:37:27.035Z,957.98
2023-03-14T09:38:26.961Z,957.90
2023-03-14T09:39:26.879Z,957.97
2023-03-14T09:40:26.796Z,957.93
2023-03-14T09:41:26.716Z,958.06
2023-03-14T09:42:26.637Z,957.94
2023-03-14T09:43:26.558Z,957.97
2023-03-14T09:44:26.488Z,957.88
2023-03-14T09:45:26.400Z,957.99
2023-03-14T09:46:26.377Z,957.93
2023-03-14T09:47:26.249Z,957.93
2023-03-14T09:48:26.156Z,957.86
2023-03-14T09:49:26.073Z,957.85
2023-03-14T09:50:26.002Z,957.94
2023-03-14T09:51:25.917Z,957.91
2023-03-14T09:52:25.833Z,957.89
2023-03-14T09:53:25.760Z,957.91
2023-03-14T09:54:25.676Z,957.94
2023-03-14T09:55:25.596Z,957.95
2023-03-14T09:56:25.513Z,957.86
2023-03-14T09:57:25.437Z,957.89
2023-03-14T09:58:25.359Z,957.88
2023-03-14T09:59:25.275Z,957.88
2023-03-14T10:00:25.206Z,957.81
2023-03-14T10:01:25.136Z,957.91
2023-03-14T10:02:25.041Z,957.95
2023-03-14T10:03:24.971Z,957.91
2023-03-14T10:04:24.901Z,957.89
2023-03-14T10:05:24.793Z,957.87
2023-03-14T10:06:24.717Z,957.85
2023-03-14T10:07:24.637Z,957.94
2023-03-14T10:08:24.562Z,957.84
2023-03-14T10:09:24.477Z,957.87
2023-03-14T10:10:24.399Z,957.83
2023-03-14T10:11:24.317Z,957.85
2023-03-14T10:12:24.305Z,957.78
2023-03-14T10:13:24.156Z,957.82
2023-03-14T10:14:24.082Z,957.82
2023-03-14T10:15:23.997Z,957.84
2023-03-14T10:16:23.949Z,957.82
2023-03-14T10:17:23.839Z,957.89
2023-03-14T10:18:23.760Z,957.79
2023-03-14T10:19:23.682Z,957.79
2023-03-14T10:20:23.609Z,957.83
2023-03-14T10:21:23.519Z,957.68
2023-03-14T10:22:23.441Z,957.76
2023-03-14T10:23:23.361Z,957.70
2023-03-14T10:24:23.282Z,957.74
2023-03-14T10:25:23.201Z,957.67
2023-03-14T10:26:23.132Z,957.72
2023-03-14T10:27:23.046Z,957.73
2023-03-14T10:28:22.971Z,957.73
2023-03-14T10:29:22.888Z,957.71
2023-03-14T10:30:22.809Z,957.75
2023-03-14T10:31:22.723Z,957.73
2023-03-14T10:32:22.700Z,957.70
2023-03-14T10:33:22.567Z,957.71
2023-03-14T10:34:22.503Z,957.75
2023-03-14T10:35:22.412Z,957.68
2023-03-14T10:36:22.420Z,957.75
2023-03-14T10:37:22.266Z,957.76
2023-03-14T10:38:22.176Z,957.74
2023-03-14T10:39:22.091Z,957.74
2023-03-14T10:40:22.015Z,957.69
2023-03-14T10:41:21.937Z,957.68
2023-03-14T10:42:21.854Z,957.67
2023-03-14T10:43:21.781Z,957.73
2023-03-14T10:44:21.699Z,957.73
2023-03-14T10:45:21.620Z,957.66
2023-03-14T10:46:21.631Z,957.70
2023-03-14T10:47:21.458Z,957.70
2023-03-14T10:48:21.386Z,957.70
2023-03-14T10:49:21.313Z,957.69
2023-03-14T10:50:21.224Z,957.77
2023-03-14T10:51:21.212Z,957.65
2023-03-14T10:52:22.215Z,957.67
2023-03-14T10:53:20.986Z,957.79
2023-03-14T10:54:20.928Z,957.65
2023-03-14T10:55:20.824Z,957.60
2023-03-14T10:56:20.749Z,957.65
2023-03-14T10:57:20.670Z,957.68
2023-03-14T10:58:20.588Z,957.67
2023-03-14T10:59:20.511Z,957.65
2023-03-14T11:00:20.436Z,957.70
2023-03-14T11:01:20.395Z,957.71
2023-03-14T11:02:20.276Z,957.74
2023-03-14T11:03:20.203Z,957.64
2023-03-14T11:04:20.169Z,957.63
2023-03-14T11:05:20.049Z,957.66
2023-03-14T11:06:19.960Z,957.91
2023-03-14T11:07:19.881Z,957.65
2023-03-14T11:08:19.817Z,957.63
2023-03-14T11:09:19.738Z,957.72
2023-03-14T11:10:19.649Z,957.65
2023-03-14T11:11:19.562Z,957.65
2023-03-14T11:12:19.486Z,957.93
2023-03-14T11:13:19.408Z,957.82
2023-03-14T11:14:19.347Z,957.74
2023-03-14T11:15:19.263Z,957.74
2023-03-14T11:16:19.193Z,957.66
2023-03-14T11:17:19.090Z,957.73
2023-03-14T11:18:19.035Z,957.66
2023-03-14T11:19:18.994Z,957.82
2023-03-14T11:20:18.857Z,957.77
2023-03-14T11:21:18.782Z,957.74
2023-03-14T11:22:18.696Z,957.81
2023-03-14T11:23:18.622Z,957.77
2023-03-14T11:24:18.534Z,957.82
2023-03-14T11:25:18.455Z,957.82
2023-03-14T11:26:18.376Z,957.89
2023-03-14T11:27:18.311Z,957.86
2023-03-14T11:28:18.223Z,957.80
2023-03-14T11:29:18.140Z,957.85
2023-03-14T11:30:18.061Z,957.87
2023-03-14T11:31:18.038Z,957.80
2023-03-14T11:32:17.907Z,957.85
2023-03-14T11:33:17.829Z,957.85
2023-03-14T11:34:17.745Z,957.76
2023-03-14T11:35:17.661Z,957.88
2023-03-14T11:36:17.646Z,957.84
2023-03-14T11:37:17.505Z,957.83
2023-03-14T11:38:17.428Z,957.80
2023-03-14T11:39:17.362Z,957.80
2023-03-14T11:40:17.275Z,957.84
2023-03-14T11:41:17.194Z,957.77
2023-03-14T11:42:17.112Z,957.75
2023-03-14T11:43:17.049Z,957.71
2023-03-14T11:44:16.954Z,957.71
2023-03-14T11:45:16.872Z,957.69
2023-03-14T11:46:16.826Z,957.57
2023-03-14T11:47:16.741Z,957.61
2023-03-14T11:48:16.650Z,957.59
2023-03-14T11:49:16.563Z,957.59
2023-03-14T11:50:16.481Z,957.85
2023-03-14T11:51:16.415Z,957.58
2023-03-14T11:52:16.930Z,957.63
2023-03-14T11:53:16.244Z,957.71
2023-03-14T11:54:16.162Z,957.70
2023-03-14T11:55:16.738Z,957.57
2023-03-14T11:56:16.004Z,957.53
2023-03-14T11:57:15.928Z,957.48
2023-03-14T11:58:15.845Z,957.57
2023-03-14T11:59:15.770Z,957.52
2023-03-14T12:00:15.690Z,957.51
2023-03-14T12:01:15.611Z,957.41
2023-03-14T12:02:15.583Z,957.50
2023-03-14T12:03:15.454Z,957.47
2023-03-14T12:04:15.443Z,957.44
2023-03-14T12:05:15.293Z,957.60
2023-03-14T12:06:15.223Z,957.55
2023-03-14T12:07:15.140Z,957.52
2023-03-14T12:08:15.058Z,957.41
2023-03-14T12:09:14.979Z,957.44
2023-03-14T12:10:14.903Z,957.41
2023-03-14T12:11:14.855Z,957.43
2023-03-14T12:12:15.007Z,957.50
2023-03-14T12:13:14.670Z,957.47
2023-03-14T12:14:14.586Z,957.34
2023-03-14T12:15:14.521Z,957.39
2023-03-14T12:16:14.452Z,957.46
2023-03-14T12:17:14.351Z,957.38
2023-03-14T12:18:14.274Z,957.40
2023-03-14T12:19:14.196Z,957.41
2023-03-14T12:20:14.117Z,957.36
2023-03-14T12:21:14.042Z,957.35
2023-03-14T12:22:13.958Z,957.33
2023-03-14T12:23:13.880Z,957.37
2023-03-14T12:24:13.802Z,957.35
2023-03-14T12:25:13.728Z,957.35
2023-03-14T12:26:13.667Z,957.29
2023-03-14T12:27:14.270Z,957.33